Anderson, SC

8:53 PM EDT on August 20, 2014 (GMT -0400)
Broadway Lake Area | Change Station
CLOSE
Current Station
Personal Weather Station
Location: Anderson, SC
Elevation: 784 ft
Nearby Weather Stations

Elev 784 ft 34.48 °N, 82.60 °W | Updated 1 second ago

Scattered Clouds
Scattered Clouds
71.0 °F
Feels Like 71.0 °F
N
1.0
Wind Variable Wind from North
Gusts 0.0 mph

Today
High -- | Low -- °F
--% Chance of Precip.
Yesterday
High -- | Low -- °F
Precip. -- in
6:55 AM 8:12 PM
Waning Crescent, 18% visible
Pressure 30.01 in
Visibility 10.0 miles
Clouds Scattered Clouds 11000 ft
Dew Point 68 °F
Humidity 89%
Rainfall 0.05 in
Snow Depth Not available.
UV 0 out of 12
Pollen 8.40 out of 12
Ozone Good
PM2.5 Good
Flu Activity Not available.
METAR KAND 202356Z AUTO 00000KT 10SM SCT110 25/15 A3003 RMK AO2 RAE03 TSE11B13E28 SLP160 P0000 60000 T02500150 10339 20250 50015

More Conditions Fewer Conditions

Pressure 30.01 in
Visibility 10.0 miles
Clouds Scattered Clouds 11000 ft
Dew Point 68 °F
Humidity 89%
Rainfall 0.05 in
Snow Depth Not available.
UV 0 out of 12
Pollen 8.40 out of 12
Ozone Good
PM2.5 Good
Flu Activity Not available.
METAR KAND 202356Z AUTO 00000KT 10SM SCT110 25/15 A3003 RMK AO2 RAE03 TSE11B13E28 SLP160 P0000 60000 T02500150 10339 20250 50015

More Conditions Fewer Conditions

10-Day Weather Forecast

Almanac

Astronomy

Aug. 20, 2014 Rise Set
Actual Time 6:55 AM EDT 8:12 PM EDT
Civil Twilight 6:28 AM EDT 8:38 PM EDT
Nautical Twilight 5:57 AM EDT 9:09 PM EDT
Astronomical Twilight 5:24 AM EDT 9:42 PM EDT
Moon 2:38 AM EDT (8/20) 4:52 PM EDT (8/20)
Length of Visible Light 14h 09m
Length of Day
13h 17m
Tomorrow will be 1m 58s shorter.
Waning Crescent, 18% of the Moon is Illuminated
Today
Waning Crescent
Aug 25
New
Sep 2
First Quarter
Sep 8
Full
Sep 15
Last Quarter

Today's Extremes

State Highs State Lows

Community

WunderPhotos

Upload Photos

1,745,823 photos uploaded!

WunderBlogs® & News

Nearby

Air Quality

  Air Quality AQ Index Pollutant
Yesterday Good
OZONE
Yesterday Good
PM2.5
Current Good
PM2.5
Current Good
OZONE
Wednesday Good
OZONE
Thursday Good
OZONE

Snow Depth

Station Depth Elevation
No new snow has been reported.

Earthquake Activity

City Distance Mag. Time & Date
No recent earthquake activity has been reported nearby.
Minimum magnitude displayed is 2.5.

Coastal Water Temperatures

Place Temperature
No Stations Reporting

Nearby Weather Stations